Time;durP1;ratioP1;P1;durP2;ratioP2;P2;SDS_P1;SDS_P2;PMS_P1;PMS_P2;Temp;Humidity;BMP_temperature;BMP_pressure;BME280_temperature;BME280_humidity;BME280_pressure;Samples;Min_cycle;Max_cycle;Signal;HPM_P1;HPM_P2
2024/02/17 00:00:05;;;;;;;9.23;7.97;;;;;;;;;;5073165;28;20439;-65
2024/02/17 00:02:33;;;;;;;12.53;9.47;;;;;;;;;;5073142;28;20799;-65
2024/02/17 00:05:01;;;;;;;9.27;7.07;;;;;;;;;;5072907;28;20526;-65
2024/02/17 00:07:29;;;;;;;8.57;7.77;;;;;;;;;;5073187;28;20467;-65
2024/02/17 00:09:56;;;;;;;6.50;5.90;;;;;;;;;;5073066;28;20564;-65
2024/02/17 00:12:23;;;;;;;6.07;5.57;;;;;;;;;;5072944;28;20820;-65
2024/02/17 00:14:50;;;;;;;6.00;5.40;;;;;;;;;;5072991;28;20538;-65
2024/02/17 00:17:17;;;;;;;4.40;4.10;;;;;;;;;;5072905;28;20538;-65
2024/02/17 00:19:46;;;;;;;4.87;4.40;;;;;;;;;;5072877;28;20530;-65
2024/02/17 00:22:13;;;;;;;3.93;3.73;;;;;;;;;;5072753;28;20938;-66
2024/02/17 00:24:41;;;;;;;4.67;4.30;;;;;;;;;;5072891;28;20451;-65
2024/02/17 00:27:09;;;;;;;5.50;5.10;;;;;;;;;;5072891;28;21029;-65
2024/02/17 00:29:36;;;;;;;5.30;4.33;;;;;;;;;;5072920;28;20450;-65
2024/02/17 00:32:03;;;;;;;4.67;4.27;;;;;;;;;;5072651;28;20565;-65
2024/02/17 00:34:30;;;;;;;5.60;5.10;;;;;;;;;;5072928;28;20450;-65
2024/02/17 00:36:57;;;;;;;5.00;4.60;;;;;;;;;;5072834;28;20988;-65
2024/02/17 00:39:24;;;;;;;5.33;4.33;;;;;;;;;;5075665;28;20554;-65
2024/02/17 00:41:52;;;;;;;9.23;4.87;;;;;;;;;;5076868;28;20443;-65
2024/02/17 00:44:19;;;;;;;5.90;5.10;;;;;;;;;;5076754;28;20533;-65
2024/02/17 00:46:46;;;;;;;5.03;4.63;;;;;;;;;;5076596;28;20474;-65
2024/02/17 00:49:13;;;;;;;6.93;5.23;;;;;;;;;;5076880;28;20802;-65
2024/02/17 00:51:40;;;;;;;6.00;5.50;;;;;;;;;;5076466;28;21034;-65
2024/02/17 00:54:08;;;;;;;5.40;5.00;;;;;;;;;;5076609;28;20454;-65
2024/02/17 00:56:34;;;;;;;6.30;5.70;;;;;;;;;;5076549;28;20849;-65
2024/02/17 00:59:03;;;;;;;6.87;6.27;;;;;;;;;;5076659;28;20934;-65
2024/02/17 01:01:30;;;;;;;7.23;6.53;;;;;;;;;;5076649;28;20534;-65
2024/02/17 01:03:57;;;;;;;7.50;6.43;;;;;;;;;;5076505;28;20807;-65
2024/02/17 01:06:24;;;;;;;6.93;6.30;;;;;;;;;;5076505;28;20439;-65
2024/02/17 01:08:50;;;;;;;6.47;5.87;;;;;;;;;;5076302;28;20450;-65
2024/02/17 01:11:18;;;;;;;7.23;6.63;;;;;;;;;;5076396;28;20559;-65
2024/02/17 01:13:45;;;;;;;7.37;5.83;;;;;;;;;;5076097;28;20443;-65
2024/02/17 01:16:13;;;;;;;6.27;5.67;;;;;;;;;;5076312;28;20535;-65
2024/02/17 01:18:40;;;;;;;9.00;6.63;;;;;;;;;;5076471;28;20530;-66
2024/02/17 01:21:07;;;;;;;6.03;5.53;;;;;;;;;;5075948;28;20819;-65
2024/02/17 01:23:34;;;;;;;6.90;6.20;;;;;;;;;;5076050;28;20538;-65
2024/02/17 01:26:01;;;;;;;6.27;5.67;;;;;;;;;;5075893;28;20475;-65
2024/02/17 01:28:28;;;;;;;6.20;5.63;;;;;;;;;;5075709;28;20538;-65
2024/02/17 01:30:55;;;;;;;7.63;6.10;;;;;;;;;;5075948;28;20443;-65
2024/02/17 01:33:23;;;;;;;6.30;5.70;;;;;;;;;;5075716;28;20486;-65
2024/02/17 01:35:50;;;;;;;6.43;5.93;;;;;;;;;;5075914;28;20497;-65
2024/02/17 01:38:17;;;;;;;5.60;5.20;;;;;;;;;;5075585;28;20503;-65
2024/02/17 01:40:44;;;;;;;6.37;5.77;;;;;;;;;;5075713;28;20474;-65
2024/02/17 01:43:13;;;;;;;5.40;4.90;;;;;;;;;;5076042;28;20447;-65
2024/02/17 01:45:40;;;;;;;5.60;5.10;;;;;;;;;;5075895;28;20444;-65
2024/02/17 01:48:07;;;;;;;5.80;5.30;;;;;;;;;;5075495;28;20518;-65
2024/02/17 01:50:36;;;;;;;4.50;4.13;;;;;;;;;;5075370;28;20443;-65
2024/02/17 01:53:03;;;;;;;6.80;4.23;;;;;;;;;;5075373;28;20505;-65
2024/02/17 01:55:30;;;;;;;3.73;3.40;;;;;;;;;;5075312;28;20530;-65
2024/02/17 01:57:57;;;;;;;3.53;3.33;;;;;;;;;;5075460;28;20455;-65
2024/02/17 02:00:25;;;;;;;3.80;3.50;;;;;;;;;;5075483;28;20534;-65
2024/02/17 02:02:53;;;;;;;3.60;3.33;;;;;;;;;;5075219;28;20534;-65
2024/02/17 02:05:20;;;;;;;3.10;2.90;;;;;;;;;;5075164;28;21023;-65
2024/02/17 02:07:48;;;;;;;3.07;2.73;;;;;;;;;;5075072;28;20463;-66
2024/02/17 02:10:15;;;;;;;3.50;2.60;;;;;;;;;;5075340;28;20581;-65
2024/02/17 02:12:42;;;;;;;2.97;2.77;;;;;;;;;;5075142;28;20919;-65
2024/02/17 02:15:10;;;;;;;2.93;2.73;;;;;;;;;;5075122;28;20555;-65
2024/02/17 02:17:37;;;;;;;4.17;2.83;;;;;;;;;;5075063;28;20457;-65
2024/02/17 02:20:04;;;;;;;3.03;2.73;;;;;;;;;;5074973;28;20451;-65
2024/02/17 02:22:31;;;;;;;3.80;3.23;;;;;;;;;;5074801;28;20453;-65
2024/02/17 02:25:00;;;;;;;3.03;2.83;;;;;;;;;;5074942;28;20534;-65
2024/02/17 02:27:28;;;;;;;2.90;2.70;;;;;;;;;;5074938;28;20443;-65
2024/02/17 02:29:56;;;;;;;2.77;2.57;;;;;;;;;;5074879;28;20538;-65
2024/02/17 02:32:26;;;;;;;2.80;2.60;;;;;;;;;;5074754;28;20487;-65
2024/02/17 02:34:53;;;;;;;2.83;2.63;;;;;;;;;;5074609;28;20493;-66
2024/02/17 02:37:20;;;;;;;2.50;2.30;;;;;;;;;;5074808;28;20501;-65
2024/02/17 02:39:47;;;;;;;4.97;2.90;;;;;;;;;;5074612;28;21094;-65
2024/02/17 02:42:14;;;;;;;3.80;2.27;;;;;;;;;;5074694;28;20519;-65
2024/02/17 02:44:42;;;;;;;2.30;2.20;;;;;;;;;;5074587;28;20474;-65
2024/02/17 02:47:09;;;;;;;3.40;3.10;;;;;;;;;;5074837;28;20454;-65
2024/02/17 02:49:36;;;;;;;3.33;2.63;;;;;;;;;;5074211;28;20981;-65
2024/02/17 02:52:03;;;;;;;3.70;3.40;;;;;;;;;;5074431;28;20510;-65
2024/02/17 02:54:30;;;;;;;2.70;2.50;;;;;;;;;;5074114;28;21029;-65
2024/02/17 02:56:57;;;;;;;2.40;2.23;;;;;;;;;;5074262;28;20538;-65
2024/02/17 02:59:24;;;;;;;2.87;2.67;;;;;;;;;;5074264;28;20813;-65
2024/02/17 03:01:52;;;;;;;3.37;3.07;;;;;;;;;;5073509;28;20535;-65
2024/02/17 03:04:19;;;;;;;3.20;3.00;;;;;;;;;;5073996;28;20550;-65
2024/02/17 03:06:46;;;;;;;3.17;2.97;;;;;;;;;;5074139;28;20523;-65
2024/02/17 03:09:14;;;;;;;3.40;3.20;;;;;;;;;;5074068;28;20550;-65
2024/02/17 03:11:42;;;;;;;2.83;2.60;;;;;;;;;;5073974;28;20526;-65
2024/02/17 03:14:09;;;;;;;3.23;3.03;;;;;;;;;;5073949;28;20931;-65
2024/02/17 03:16:39;;;;;;;3.37;3.10;;;;;;;;;;5073745;28;20880;-66
2024/02/17 03:19:07;;;;;;;3.77;3.43;;;;;;;;;;5074010;28;20439;-65
2024/02/17 03:21:34;;;;;;;4.10;3.80;;;;;;;;;;5074205;28;20534;-65
2024/02/17 03:24:01;;;;;;;3.57;3.27;;;;;;;;;;5073789;28;20443;-65
2024/02/17 03:26:28;;;;;;;3.20;2.90;;;;;;;;;;5073818;28;20935;-65
2024/02/17 03:28:54;;;;;;;4.40;4.10;;;;;;;;;;5073817;28;20539;-65
2024/02/17 03:31:23;;;;;;;3.83;3.53;;;;;;;;;;5073431;28;20485;-65
2024/02/17 03:33:50;;;;;;;3.40;3.20;;;;;;;;;;5073620;28;20577;-65
2024/02/17 03:36:19;;;;;;;3.30;3.10;;;;;;;;;;5073583;28;20444;-65
2024/02/17 03:38:46;;;;;;;3.40;3.20;;;;;;;;;;5073399;28;20475;-65
2024/02/17 03:41:15;;;;;;;5.30;3.50;;;;;;;;;;5073413;28;20803;-65
2024/02/17 03:43:42;;;;;;;4.10;3.70;;;;;;;;;;5073280;28;20542;-66
2024/02/17 03:46:09;;;;;;;3.57;3.27;;;;;;;;;;5073482;28;20863;-65
2024/02/17 03:48:36;;;;;;;3.93;3.63;;;;;;;;;;5073438;28;20443;-65
2024/02/17 03:51:03;;;;;;;3.40;3.10;;;;;;;;;;5073332;28;20447;-65
2024/02/17 03:53:31;;;;;;;3.60;3.37;;;;;;;;;;5073150;28;20483;-65
2024/02/17 03:55:58;;;;;;;4.60;4.20;;;;;;;;;;5073881;28;20539;-65
2024/02/17 03:58:25;;;;;;;3.73;3.43;;;;;;;;;;5073079;28;20558;-65
2024/02/17 04:00:52;;;;;;;4.67;4.30;;;;;;;;;;5073332;28;20851;-65
2024/02/17 04:03:19;;;;;;;4.23;4.00;;;;;;;;;;5073173;28;20439;-65
2024/02/17 04:05:46;;;;;;;4.47;4.17;;;;;;;;;;5073131;28;20517;-65
2024/02/17 04:08:13;;;;;;;4.60;4.20;;;;;;;;;;5073349;28;20451;-65
2024/02/17 04:10:41;;;;;;;4.43;4.03;;;;;;;;;;5072901;28;20447;-65
2024/02/17 04:13:09;;;;;;;4.90;4.60;;;;;;;;;;5072129;28;20569;-65
2024/02/17 04:15:38;;;;;;;5.20;4.80;;;;;;;;;;5073060;28;20443;-65
2024/02/17 04:18:06;;;;;;;5.13;4.83;;;;;;;;;;5073076;28;20497;-65
2024/02/17 04:20:37;;;;;;;5.50;5.00;;;;;;;;;;5072932;28;20450;-65
2024/02/17 04:23:03;;;;;;;5.53;5.00;;;;;;;;;;5072992;28;20532;-65
2024/02/17 04:25:30;;;;;;;5.57;5.07;;;;;;;;;;5072779;28;20439;-65
2024/02/17 04:27:59;;;;;;;5.90;5.30;;;;;;;;;;5072798;28;20902;-65
2024/02/17 04:30:26;;;;;;;6.50;5.90;;;;;;;;;;5072998;28;20443;-65
2024/02/17 04:32:53;;;;;;;6.50;5.90;;;;;;;;;;5073026;28;20471;-65
2024/02/17 04:35:19;;;;;;;5.50;5.00;;;;;;;;;;5073074;28;20534;-65
2024/02/17 04:37:46;;;;;;;7.93;5.00;;;;;;;;;;5072594;28;20709;-66
2024/02/17 04:40:13;;;;;;;5.90;5.40;;;;;;;;;;5072630;28;20886;-65
2024/02/17 04:42:41;;;;;;;5.50;5.10;;;;;;;;;;5072801;28;20443;-65
2024/02/17 04:45:10;;;;;;;6.13;5.63;;;;;;;;;;5072935;28;20995;-65
2024/02/17 04:47:37;;;;;;;6.37;5.77;;;;;;;;;;5073013;28;20451;-65
2024/02/17 04:50:04;;;;;;;6.17;5.67;;;;;;;;;;5072655;28;20527;-65
2024/02/17 04:52:31;;;;;;;5.90;4.70;;;;;;;;;;5072426;28;20479;-65
2024/02/17 04:54:58;;;;;;;6.50;6.00;;;;;;;;;;5072486;28;20978;-65
2024/02/17 04:57:25;;;;;;;7.73;5.93;;;;;;;;;;5072722;28;20443;-65
2024/02/17 04:59:52;;;;;;;6.60;6.00;;;;;;;;;;5072639;28;20448;-65
2024/02/17 05:02:21;;;;;;;5.87;5.37;;;;;;;;;;5072604;28;20538;-65
2024/02/17 05:04:48;;;;;;;6.70;6.10;;;;;;;;;;5072492;28;20439;-65
2024/02/17 05:07:15;;;;;;;6.43;5.90;;;;;;;;;;5072396;28;20439;-65
2024/02/17 05:09:42;;;;;;;6.77;6.17;;;;;;;;;;5072878;28;20446;-65
2024/02/17 05:12:09;;;;;;;5.70;5.30;;;;;;;;;;5072691;28;20512;-65
2024/02/17 05:14:37;;;;;;;7.00;5.53;;;;;;;;;;5072454;28;20534;-65
2024/02/17 05:17:04;;;;;;;5.23;4.83;;;;;;;;;;5072662;28;20491;-65
2024/02/17 05:19:33;;;;;;;5.77;5.27;;;;;;;;;;5072270;28;20443;-65
2024/02/17 05:22:00;;;;;;;6.23;5.73;;;;;;;;;;5072522;28;20500;-65
2024/02/17 05:24:27;;;;;;;6.53;5.93;;;;;;;;;;5073795;28;20541;-65
2024/02/17 05:26:54;;;;;;;6.43;5.80;;;;;;;;;;5076102;28;20483;-65
2024/02/17 05:29:21;;;;;;;8.83;5.40;;;;;;;;;;5076023;28;20439;-65
2024/02/17 05:31:48;;;;;;;6.10;5.60;;;;;;;;;;5075865;28;20945;-65
2024/02/17 05:34:17;;;;;;;6.00;5.50;;;;;;;;;;5075664;28;20572;-65
2024/02/17 05:36:45;;;;;;;5.63;5.13;;;;;;;;;;5075971;28;20451;-65
2024/02/17 05:39:12;;;;;;;6.90;6.07;;;;;;;;;;5075746;28;20673;-65
2024/02/17 05:41:39;;;;;;;5.90;5.40;;;;;;;;;;5075735;28;20641;-65
2024/02/17 05:44:06;;;;;;;6.90;6.20;;;;;;;;;;5075613;28;20447;-65
2024/02/17 05:46:34;;;;;;;6.37;5.87;;;;;;;;;;5075520;28;20504;-65
2024/02/17 05:49:01;;;;;;;7.67;4.80;;;;;;;;;;5075739;28;20852;-65
2024/02/17 05:51:28;;;;;;;5.57;5.07;;;;;;;;;;5075576;28;20501;-65
2024/02/17 05:53:56;;;;;;;5.93;5.43;;;;;;;;;;5075575;28;20820;-65
2024/02/17 05:56:23;;;;;;;5.97;5.30;;;;;;;;;;5075485;28;20538;-65
2024/02/17 05:58:50;;;;;;;6.07;5.47;;;;;;;;;;5075399;28;20451;-65
2024/02/17 06:01:18;;;;;;;5.50;5.10;;;;;;;;;;5075273;28;20539;-65
2024/02/17 06:03:45;;;;;;;6.00;4.80;;;;;;;;;;5075501;28;20448;-65
2024/02/17 06:06:12;;;;;;;5.50;5.00;;;;;;;;;;5075330;28;20880;-65
2024/02/17 06:08:39;;;;;;;5.83;4.90;;;;;;;;;;5075250;28;20483;-65
2024/02/17 06:11:08;;;;;;;4.77;4.37;;;;;;;;;;5075217;28;20443;-65
2024/02/17 06:13:35;;;;;;;7.00;5.23;;;;;;;;;;5075052;28;20472;-65
2024/02/17 06:16:03;;;;;;;6.50;4.97;;;;;;;;;;5075035;28;20474;-65
2024/02/17 06:21:20;;;;;;;7.20;5.13;;;;;;;;;;5075051;28;20945;-65
2024/02/17 06:23:48;;;;;;;5.77;4.90;;;;;;;;;;5075055;28;20439;-65
2024/02/17 06:26:23;;;;;;;5.53;4.93;;;;;;;;;;5074783;28;20453;-65
2024/02/17 06:28:50;;;;;;;6.07;4.80;;;;;;;;;;5074960;28;20867;-65
2024/02/17 06:31:17;;;;;;;4.67;4.27;;;;;;;;;;5074977;28;20853;-65
2024/02/17 06:33:44;;;;;;;5.83;4.87;;;;;;;;;;5074739;28;20562;-65
2024/02/17 06:36:11;;;;;;;5.83;5.27;;;;;;;;;;5073752;28;20478;-65
2024/02/17 06:38:38;;;;;;;5.20;4.63;;;;;;;;;;5074464;28;20479;-65
2024/02/17 06:41:05;;;;;;;7.80;5.60;;;;;;;;;;5074724;28;20446;-65
2024/02/17 06:43:34;;;;;;;8.37;5.10;;;;;;;;;;5074626;28;20539;-65
2024/02/17 06:46:01;;;;;;;4.60;4.20;;;;;;;;;;5074526;28;20447;-65
2024/02/17 06:48:27;;;;;;;6.23;3.80;;;;;;;;;;5074525;28;20891;-65
2024/02/17 06:50:54;;;;;;;4.63;3.97;;;;;;;;;;5074507;28;20534;-65
2024/02/17 06:53:21;;;;;;;6.37;4.60;;;;;;;;;;5074571;28;20490;-65
2024/02/17 06:55:48;;;;;;;4.47;4.07;;;;;;;;;;5074429;28;20443;-65
2024/02/17 06:58:16;;;;;;;5.53;5.03;;;;;;;;;;5074355;28;20996;-65
2024/02/17 07:00:44;;;;;;;5.27;4.30;;;;;;;;;;5074223;28;20534;-65
2024/02/17 07:03:11;;;;;;;6.10;4.40;;;;;;;;;;5074092;28;20864;-65
2024/02/17 07:05:40;;;;;;;5.30;4.47;;;;;;;;;;5074053;28;20509;-65
2024/02/17 07:08:08;;;;;;;4.90;4.40;;;;;;;;;;5073841;28;20454;-65
2024/02/17 07:10:35;;;;;;;5.10;4.53;;;;;;;;;;5074116;28;20958;-65
2024/02/17 07:13:02;;;;;;;5.03;4.50;;;;;;;;;;5073912;28;20826;-65
2024/02/17 07:15:29;;;;;;;5.30;4.60;;;;;;;;;;5073812;28;20803;-65
2024/02/17 07:18:00;;;;;;;7.90;4.37;;;;;;;;;;5073775;28;20539;-65
2024/02/17 07:20:27;;;;;;;5.57;4.23;;;;;;;;;;5073698;28;20448;-65
2024/02/17 07:22:54;;;;;;;4.27;3.97;;;;;;;;;;5073769;28;20538;-65
2024/02/17 07:25:21;;;;;;;6.77;4.17;;;;;;;;;;5073769;28;20450;-65
2024/02/17 07:27:48;;;;;;;5.53;4.27;;;;;;;;;;5073732;28;20523;-65
2024/02/17 07:30:16;;;;;;;4.10;3.80;;;;;;;;;;5073563;28;20538;-65
2024/02/17 07:32:42;;;;;;;4.80;4.40;;;;;;;;;;5073516;28;20487;-65
2024/02/17 07:35:11;;;;;;;4.47;4.07;;;;;;;;;;5073377;28;20525;-65
2024/02/17 07:37:38;;;;;;;4.37;3.97;;;;;;;;;;5073582;28;20469;-65
2024/02/17 07:40:08;;;;;;;7.10;3.90;;;;;;;;;;5073406;28;20478;-65
2024/02/17 07:42:35;;;;;;;7.77;4.40;;;;;;;;;;5073393;28;20521;-65
2024/02/17 07:45:02;;;;;;;5.27;4.70;;;;;;;;;;5073291;28;20536;-65
2024/02/17 07:47:29;;;;;;;4.40;4.00;;;;;;;;;;5072926;28;20444;-65
2024/02/17 07:49:56;;;;;;;5.57;4.20;;;;;;;;;;5073294;28;20554;-65
2024/02/17 07:52:24;;;;;;;5.07;4.57;;;;;;;;;;5073157;28;20440;-65
2024/02/17 07:54:51;;;;;;;8.33;4.80;;;;;;;;;;5073063;28;20483;-65
2024/02/17 07:57:18;;;;;;;4.70;4.20;;;;;;;;;;5072923;28;20522;-65
2024/02/17 07:59:45;;;;;;;4.00;3.70;;;;;;;;;;5073005;28;20824;-65
2024/02/17 08:02:12;;;;;;;4.57;4.17;;;;;;;;;;5072898;28;20871;-65
2024/02/17 08:04:40;;;;;;;4.20;3.70;;;;;;;;;;5073113;28;20450;-65
2024/02/17 08:07:07;;;;;;;6.00;4.00;;;;;;;;;;5072994;28;20478;-65
2024/02/17 08:09:35;;;;;;;4.23;3.93;;;;;;;;;;5073325;28;20446;-65
2024/02/17 08:12:01;;;;;;;4.97;4.10;;;;;;;;;;5072997;28;20539;-65
2024/02/17 08:14:28;;;;;;;4.30;3.50;;;;;;;;;;5072921;28;20903;-65
2024/02/17 08:16:55;;;;;;;4.40;4.00;;;;;;;;;;5072859;28;20538;-65
2024/02/17 08:19:22;;;;;;;4.27;3.57;;;;;;;;;;5072988;28;20471;-65
2024/02/17 08:21:49;;;;;;;5.43;3.73;;;;;;;;;;5072845;28;20959;-65
2024/02/17 08:24:16;;;;;;;3.70;3.27;;;;;;;;;;5072991;28;20493;-65
2024/02/17 08:26:44;;;;;;;3.97;3.57;;;;;;;;;;5072851;28;20439;-65
2024/02/17 08:29:11;;;;;;;4.47;3.20;;;;;;;;;;5072810;28;20534;-65
2024/02/17 08:31:38;;;;;;;3.30;3.00;;;;;;;;;;5072982;28;20538;-65
2024/02/17 08:34:05;;;;;;;3.20;2.90;;;;;;;;;;5072822;28;20920;-65
2024/02/17 08:36:32;;;;;;;7.17;3.10;;;;;;;;;;5072732;28;20561;-65
2024/02/17 08:38:59;;;;;;;3.30;2.57;;;;;;;;;;5072558;28;20499;-65
2024/02/17 08:41:27;;;;;;;4.60;2.57;;;;;;;;;;5072948;28;20447;-65
2024/02/17 08:43:56;;;;;;;2.97;2.77;;;;;;;;;;5072607;28;20546;-65
2024/02/17 08:46:22;;;;;;;3.20;2.00;;;;;;;;;;5072785;28;20534;-65
2024/02/17 08:48:50;;;;;;;3.43;2.70;;;;;;;;;;5072733;28;20887;-65
2024/02/17 08:51:17;;;;;;;3.50;2.73;;;;;;;;;;5072550;28;20958;-65
2024/02/17 08:53:44;;;;;;;3.50;2.03;;;;;;;;;;5072458;28;20471;-65
2024/02/17 08:56:11;;;;;;;2.77;2.13;;;;;;;;;;5072568;28;20446;-66
2024/02/17 08:58:38;;;;;;;2.47;2.27;;;;;;;;;;5072591;28;20473;-65
2024/02/17 09:01:06;;;;;;;3.10;2.10;;;;;;;;;;5076292;28;20476;-65
2024/02/17 09:03:33;;;;;;;4.60;2.37;;;;;;;;;;5076470;28;20451;-65
2024/02/17 09:06:00;;;;;;;4.57;2.33;;;;;;;;;;5076356;28;20443;-65
2024/02/17 09:08:27;;;;;;;2.17;1.87;;;;;;;;;;5076344;28;20878;-65
2024/02/17 09:10:54;;;;;;;1.60;1.50;;;;;;;;;;5076164;28;20537;-65
2024/02/17 09:13:21;;;;;;;1.97;1.77;;;;;;;;;;5076450;28;20520;-65
2024/02/17 09:15:48;;;;;;;1.97;1.87;;;;;;;;;;5076168;28;20534;-65
2024/02/17 09:18:16;;;;;;;5.87;1.60;;;;;;;;;;5076151;28;20877;-65
2024/02/17 09:20:43;;;;;;;2.80;1.50;;;;;;;;;;5076043;28;20876;-65
2024/02/17 09:23:11;;;;;;;1.90;1.70;;;;;;;;;;5075966;28;20497;-65
2024/02/17 09:25:39;;;;;;;1.60;1.50;;;;;;;;;;5075911;28;20450;-65
2024/02/17 09:28:06;;;;;;;7.20;1.73;;;;;;;;;;5076051;28;20492;-66
2024/02/17 09:30:34;;;;;;;6.40;1.70;;;;;;;;;;5075959;28;20443;-65
2024/02/17 09:33:01;;;;;;;2.00;1.80;;;;;;;;;;5075915;28;20439;-65
2024/02/17 09:35:29;;;;;;;2.70;2.50;;;;;;;;;;5075746;28;20479;-65
2024/02/17 09:37:56;;;;;;;3.27;2.43;;;;;;;;;;5075602;28;20448;-65
2024/02/17 09:40:23;;;;;;;3.37;1.70;;;;;;;;;;5075856;28;20451;-65
2024/02/17 09:42:50;;;;;;;1.50;1.40;;;;;;;;;;5075754;28;20555;-65
2024/02/17 09:45:17;;;;;;;1.20;1.10;;;;;;;;;;5075669;28;20443;-65
2024/02/17 09:47:45;;;;;;;1.40;1.10;;;;;;;;;;5075519;28;20530;-65
2024/02/17 09:50:12;;;;;;;2.40;1.10;;;;;;;;;;5075495;28;20444;-65
2024/02/17 09:52:40;;;;;;;1.43;0.80;;;;;;;;;;5075366;28;20439;-66
2024/02/17 09:55:08;;;;;;;1.93;1.00;;;;;;;;;;5075490;28;20571;-65
2024/02/17 09:57:35;;;;;;;1.17;1.07;;;;;;;;;;5075748;28;20546;-65
2024/02/17 10:00:05;;;;;;;1.63;1.00;;;;;;;;;;5075163;28;20444;-65
2024/02/17 10:02:33;;;;;;;3.00;1.70;;;;;;;;;;5075347;28;21009;-65
2024/02/17 10:05:00;;;;;;;1.37;0.70;;;;;;;;;;5075198;28;20493;-65
2024/02/17 10:07:27;;;;;;;1.37;0.80;;;;;;;;;;5075392;28;20922;-65
2024/02/17 10:09:55;;;;;;;0.97;0.93;;;;;;;;;;5075303;28;20605;-65
2024/02/17 10:12:22;;;;;;;2.40;1.07;;;;;;;;;;5075448;28;20482;-65
2024/02/17 10:14:52;;;;;;;1.30;0.90;;;;;;;;;;5075080;28;20566;-65
2024/02/17 10:17:19;;;;;;;0.80;0.70;;;;;;;;;;5075049;28;20457;-65
2024/02/17 10:19:46;;;;;;;1.00;0.70;;;;;;;;;;5074952;28;20451;-65
2024/02/17 10:22:13;;;;;;;1.40;0.70;;;;;;;;;;5075017;28;20447;-65
2024/02/17 10:24:40;;;;;;;1.00;0.83;;;;;;;;;;5075022;28;20451;-65
2024/02/17 10:27:08;;;;;;;1.47;0.67;;;;;;;;;;5074884;28;20543;-65
2024/02/17 10:29:35;;;;;;;1.77;0.70;;;;;;;;;;5074790;28;20447;-65
2024/02/17 10:32:02;;;;;;;0.67;0.60;;;;;;;;;;5074658;28;20920;-66
2024/02/17 10:34:29;;;;;;;1.53;0.63;;;;;;;;;;5074975;28;20478;-66
2024/02/17 10:36:57;;;;;;;2.90;0.67;;;;;;;;;;5074817;28;20535;-66
2024/02/17 10:39:24;;;;;;;1.80;0.60;;;;;;;;;;5074362;28;20907;-65
2024/02/17 10:41:50;;;;;;;1.10;1.00;;;;;;;;;;5074557;28;20538;-66
2024/02/17 10:44:19;;;;;;;0.80;0.60;;;;;;;;;;5074469;28;20543;-66
2024/02/17 10:46:48;;;;;;;2.20;0.60;;;;;;;;;;5074163;28;20848;-66
2024/02/17 10:49:21;;;;;;;0.90;0.73;;;;;;;;;;5074475;28;20463;-66
2024/02/17 10:51:52;;;;;;;4.77;1.70;;;;;;;;;;5074491;28;20853;-66
2024/02/17 10:54:26;;;;;;;1.00;0.90;;;;;;;;;;5074317;28;20477;-65
2024/02/17 10:56:54;;;;;;;0.70;0.60;;;;;;;;;;5074255;28;20466;-65
2024/02/17 10:59:24;;;;;;;1.43;0.60;;;;;;;;;;5073953;28;20645;-65
2024/02/17 11:01:52;;;;;;;1.00;0.70;;;;;;;;;;5074213;28;20493;-66
2024/02/17 11:04:20;;;;;;;1.03;0.60;;;;;;;;;;5074210;28;20535;-65
2024/02/17 11:06:47;;;;;;;0.60;0.60;;;;;;;;;;5074244;28;20475;-66
2024/02/17 11:09:14;;;;;;;1.63;0.80;;;;;;;;;;5073911;28;20457;-65
2024/02/17 11:11:41;;;;;;;1.13;0.60;;;;;;;;;;5073640;28;20443;-66
2024/02/17 11:14:23;;;;;;;1.27;0.80;;;;;;;;;;5073978;28;20558;-66
2024/02/17 11:16:52;;;;;;;2.13;0.90;;;;;;;;;;5073831;28;20450;-66
2024/02/17 11:19:19;;;;;;;0.63;0.57;;;;;;;;;;5073622;28;20440;-66
2024/02/17 11:21:47;;;;;;;0.80;0.80;;;;;;;;;;5073220;28;20531;-65
2024/02/17 11:24:15;;;;;;;1.23;0.70;;;;;;;;;;5073571;28;20927;-66
2024/02/17 11:26:42;;;;;;;0.87;0.67;;;;;;;;;;5073802;28;20537;-66
2024/02/17 11:29:09;;;;;;;1.43;0.80;;;;;;;;;;5073772;28;20444;-66
2024/02/17 11:31:37;;;;;;;0.90;0.70;;;;;;;;;;5073714;28;20878;-65
2024/02/17 11:34:05;;;;;;;1.10;0.70;;;;;;;;;;5073530;28;20508;-66
2024/02/17 11:36:33;;;;;;;1.20;0.83;;;;;;;;;;5073678;28;20542;-66
2024/02/17 11:39:01;;;;;;;1.63;0.70;;;;;;;;;;5073141;28;20467;-65
2024/02/17 11:41:28;;;;;;;1.70;0.77;;;;;;;;;;5073820;28;20447;-65
2024/02/17 11:43:56;;;;;;;1.67;0.80;;;;;;;;;;5073366;28;20538;-66
2024/02/17 11:46:23;;;;;;;1.33;0.80;;;;;;;;;;5073283;28;20458;-66
2024/02/17 11:48:51;;;;;;;0.87;0.70;;;;;;;;;;5073417;28;20452;-65
2024/02/17 11:51:21;;;;;;;1.00;0.60;;;;;;;;;;5073261;28;20534;-66
2024/02/17 11:53:48;;;;;;;0.90;0.70;;;;;;;;;;5073597;28;20989;-66
2024/02/17 11:56:15;;;;;;;0.80;0.70;;;;;;;;;;5073189;28;20570;-66
2024/02/17 11:58:43;;;;;;;5.47;1.07;;;;;;;;;;5073164;28;20454;-65
2024/02/17 12:01:10;;;;;;;1.20;1.10;;;;;;;;;;5073198;28;20447;-66
2024/02/17 12:03:37;;;;;;;2.40;1.00;;;;;;;;;;5073111;28;20450;-66
2024/02/17 12:06:06;;;;;;;0.90;0.70;;;;;;;;;;5073007;28;20543;-66
2024/02/17 12:08:35;;;;;;;1.00;0.87;;;;;;;;;;5073224;28;20534;-66
2024/02/17 12:11:03;;;;;;;2.00;0.93;;;;;;;;;;5073047;28;20448;-66
2024/02/17 12:13:30;;;;;;;3.23;1.20;;;;;;;;;;5073065;28;20530;-66
2024/02/17 12:16:05;;;;;;;1.40;1.23;;;;;;;;;;5072857;28;20479;-66
2024/02/17 12:18:32;;;;;;;1.70;1.30;;;;;;;;;;5072823;28;20455;-66
2024/02/17 12:21:01;;;;;;;1.10;1.00;;;;;;;;;;5072885;28;20482;-66
2024/02/17 12:23:28;;;;;;;2.83;1.00;;;;;;;;;;5073030;28;20439;-66
2024/02/17 12:25:56;;;;;;;2.60;1.10;;;;;;;;;;5072965;28;20535;-66
2024/02/17 12:28:24;;;;;;;1.07;0.97;;;;;;;;;;5072795;28;20550;-65
2024/02/17 12:30:53;;;;;;;5.30;1.73;;;;;;;;;;5072685;28;20807;-66
2024/02/17 12:33:21;;;;;;;2.47;1.43;;;;;;;;;;5072983;28;20547;-66
2024/02/17 12:35:48;;;;;;;2.40;0.90;;;;;;;;;;5076717;28;20482;-66
2024/02/17 12:38:17;;;;;;;2.83;1.20;;;;;;;;;;5076785;28;20521;-65
2024/02/17 12:40:45;;;;;;;2.13;1.10;;;;;;;;;;5076945;28;20806;-65
2024/02/17 12:43:20;;;;;;;1.60;0.93;;;;;;;;;;5076806;28;20447;-66
2024/02/17 12:45:47;;;;;;;1.60;0.90;;;;;;;;;;5076948;28;20462;-66
2024/02/17 12:48:15;;;;;;;2.43;1.07;;;;;;;;;;5076774;28;20500;-66
2024/02/17 12:50:42;;;;;;;1.77;1.03;;;;;;;;;;5076714;28;20440;-66
2024/02/17 12:53:14;;;;;;;2.63;1.10;;;;;;;;;;5076755;28;20532;-66
2024/02/17 12:55:41;;;;;;;2.33;1.60;;;;;;;;;;5076490;28;20509;-66
2024/02/17 12:58:08;;;;;;;1.90;1.17;;;;;;;;;;5076230;28;20534;-66
2024/02/17 13:00:37;;;;;;;3.13;1.53;;;;;;;;;;5076555;28;20536;-66
2024/02/17 13:03:05;;;;;;;2.13;1.00;;;;;;;;;;5076502;28;20447;-66
2024/02/17 13:05:32;;;;;;;4.43;1.30;;;;;;;;;;5076501;28;20447;-66
2024/02/17 13:07:59;;;;;;;1.80;1.23;;;;;;;;;;5076374;28;20871;-65
2024/02/17 13:10:26;;;;;;;3.10;1.70;;;;;;;;;;5076194;28;20482;-65
2024/02/17 13:12:53;;;;;;;3.37;1.47;;;;;;;;;;5076410;28;20451;-66
2024/02/17 13:15:20;;;;;;;3.97;1.57;;;;;;;;;;5076055;28;21002;-66
2024/02/17 13:17:48;;;;;;;3.60;1.40;;;;;;;;;;5076201;28;20447;-66
2024/02/17 13:20:16;;;;;;;6.60;1.37;;;;;;;;;;5076153;28;20474;-66
2024/02/17 13:22:43;;;;;;;2.50;1.00;;;;;;;;;;5076092;28;20447;-66
2024/02/17 13:25:10;;;;;;;3.40;1.33;;;;;;;;;;5075882;28;20542;-66
2024/02/17 13:27:39;;;;;;;2.30;1.10;;;;;;;;;;5076343;28;20492;-66
2024/02/17 13:30:08;;;;;;;6.40;2.13;;;;;;;;;;5076050;28;20443;-65
2024/02/17 13:32:36;;;;;;;6.73;1.97;;;;;;;;;;5075964;28;20443;-66
2024/02/17 13:35:05;;;;;;;4.20;1.67;;;;;;;;;;5075778;28;20467;-65
2024/02/17 13:37:32;;;;;;;2.70;1.40;;;;;;;;;;5075703;28;20641;-65
2024/02/17 13:39:59;;;;;;;2.73;1.40;;;;;;;;;;5075826;28;20495;-66
2024/02/17 13:42:26;;;;;;;5.40;1.20;;;;;;;;;;5075799;28;21022;-66
2024/02/17 13:44:53;;;;;;;5.30;1.30;;;;;;;;;;5075299;28;20567;-65
2024/02/17 13:47:20;;;;;;;2.30;1.17;;;;;;;;;;5075561;28;21021;-66
2024/02/17 13:49:48;;;;;;;4.83;1.83;;;;;;;;;;5075379;28;20444;-65
2024/02/17 13:52:16;;;;;;;4.20;1.53;;;;;;;;;;5075345;28;20440;-65
2024/02/17 13:54:44;;;;;;;3.73;1.60;;;;;;;;;;5075713;28;20528;-65
2024/02/17 13:57:11;;;;;;;4.83;2.13;;;;;;;;;;5075439;28;20566;-65
2024/02/17 13:59:40;;;;;;;5.37;2.17;;;;;;;;;;5075479;28;20538;-66
2024/02/17 14:02:07;;;;;;;1.83;1.00;;;;;;;;;;5075346;28;20451;-66
2024/02/17 14:04:35;;;;;;;2.40;2.10;;;;;;;;;;5075203;28;20443;-66
2024/02/17 14:07:02;;;;;;;6.30;1.90;;;;;;;;;;5075407;28;20538;-66
2024/02/17 14:09:30;;;;;;;8.10;2.33;;;;;;;;;;5075357;28;20497;-66
2024/02/17 14:11:57;;;;;;;12.00;1.80;;;;;;;;;;5075224;28;20450;-65
2024/02/17 14:14:24;;;;;;;2.50;1.10;;;;;;;;;;5075115;28;20943;-65
2024/02/17 14:16:51;;;;;;;5.47;1.80;;;;;;;;;;5074966;28;20566;-66
2024/02/17 14:19:19;;;;;;;5.23;1.40;;;;;;;;;;5074937;28;20458;-66
2024/02/17 14:21:46;;;;;;;5.33;2.20;;;;;;;;;;5074814;28;21008;-65
2024/02/17 14:24:13;;;;;;;3.20;1.20;;;;;;;;;;5075116;28;20451;-66
2024/02/17 14:26:42;;;;;;;3.53;1.20;;;;;;;;;;5074825;28;20966;-66
2024/02/17 14:29:09;;;;;;;8.23;1.50;;;;;;;;;;5074858;28;20538;-66
2024/02/17 14:31:40;;;;;;;4.33;1.50;;;;;;;;;;5074673;28;20534;-66
2024/02/17 14:34:07;;;;;;;7.43;1.30;;;;;;;;;;5074901;28;20534;-66
2024/02/17 14:36:34;;;;;;;9.40;1.87;;;;;;;;;;5074677;28;20570;-66
2024/02/17 14:39:01;;;;;;;6.30;1.60;;;;;;;;;;5074519;28;20906;-66
2024/02/17 14:41:28;;;;;;;5.00;1.37;;;;;;;;;;5074609;28;20530;-66
2024/02/17 14:43:56;;;;;;;1.97;1.20;;;;;;;;;;5074533;28;20534;-66
2024/02/17 14:46:23;;;;;;;3.40;1.40;;;;;;;;;;5074434;28;20804;-66